Eastman, GA

9:16 PM EDT on July 29, 2014 (GMT -0400)
Eastman (KGAEASTM4) Elev 381 ft | 32.20 °N, 83.18 °W | Change Station

Current weather conditions updated 8 minutes ago

Mostly Cloudy
Mostly Cloudy
76.1 °F
Feels Like 78 °F
N
0.0
Wind Variable Wind from SW

Tomorrow is forecast to be Cooler than today.

Today
High -- | Low -- °F
--% Chance of Precip.
Yesterday
High -- | Low -- °F
Precip. -- in
6:45 AM 8:32 PM
Waxing Crescent, 8% visible
Pressure 29.98 in
Visibility 10.0 miles
Clouds Mostly Cloudy 7000 ft
Heat Index 78 °F
Dew Point 62 °F
Humidity 61%
Rainfall 0.00 in
Snow Depth Not available.
UV 0 out of 12
Pollen 5.20 out of 12
Air Quality Not available.
Flu Activity Not available.
METAR KEZM 300055Z AUTO 00000KT 10SM BKN070 24/19 A2998 RMK AO2 T02370190

More Conditions Fewer Conditions

Pressure 29.98 in
Visibility 10.0 miles
Clouds Mostly Cloudy 7000 ft
Heat Index 78 °F
Dew Point 62 °F
Humidity 61%
Rainfall 0.00 in
Snow Depth Not available.
UV 0 out of 12
Pollen 5.20 out of 12
Air Quality Not available.
Flu Activity Not available.
METAR KEZM 300055Z AUTO 00000KT 10SM BKN070 24/19 A2998 RMK AO2 T02370190

More Conditions Fewer Conditions

10-Day Weather Forecast

Almanac

Astronomy

Jul. 29, 2014 Rise Set
Actual Time 6:45 AM EDT 8:32 PM EDT
Civil Twilight 6:18 AM EDT 8:59 PM EDT
Nautical Twilight 5:46 AM EDT 9:31 PM EDT
Astronomical Twilight 5:12 AM EDT 10:05 PM EDT
Moon 9:09 AM EDT (7/29) 9:57 PM EDT (7/29)
Length of Visible Light 14h 40m
Length of Day
13h 46m
Tomorrow will be 1m 25s shorter.
Waxing Crescent, 8% of the Moon is Illuminated
Today
Waxing Crescent
Aug 3
First Quarter
Aug 10
Full
Aug 17
Last Quarter
Aug 25
New

Today's Extremes

State Highs State Lows

Community

WunderPhotos

Upload Photos

1,738,939 photos uploaded!

Nearby

Snow Depth

Station Depth Elevation
No new snow has been reported.

Earthquake Activity

City Distance Mag. Time & Date
No recent earthquake activity has been reported nearby.
Minimum magnitude displayed is 2.5.

Coastal Water Temperatures

Place Temperature
No Stations Reporting

Nearby Weather Stations

Station Location Temp. Heat Index Dew Point Humidity Wind Precip. Elev Updated Type
Eastman, Eastman, GA 76.1 °F 78 °F 62 °F 61% SW  at  0.0 mph - / hr 381 ft 9:07 PM EDT Normal
SW of Chauncey, Chauncey, GA 74.7 °F 77 °F 40 °F 29% NNE  at  0.0 mph 0.00 in / hr 367 ft 9:16 PM EDT Rapid Fire
Abbeville, GA, Abbeville, GA 75.6 °F 77 °F 64 °F 67% NNW  at  1.7 mph - / hr 253 ft 9:01 PM EDT Normal
RAWS MCRAE GA, McRae, GA 81 °F 81 °F 56 °F 43% North  at  2 mph 0.00 in / hr 201 ft 8:03 PM EDT MADIS

Show More Stations Show Fewer Stations